Time;durP1;ratioP1;P1;durP2;ratioP2;P2;SDS_P1;SDS_P2;PMS_P1;PMS_P2;Temp;Humidity;BMP_temperature;BMP_pressure;BME280_temperature;BME280_humidity;BME280_pressure;Samples;Min_cycle;Max_cycle;Signal;HPM_P1;HPM_P2
2021/01/09 00:01:46;;;;;;;20.50;14.35;;;2.20;1.00;;;;;;5096841;28;20020;-86
2021/01/09 00:04:13;;;;;;;22.58;14.30;;;2.30;1.00;;;;;;5098928;28;20036;-85
2021/01/09 00:06:39;;;;;;;22.95;14.05;;;1.80;1.00;;;;;;5106950;28;20038;-85
2021/01/09 00:09:05;;;;;;;24.63;14.32;;;1.90;1.00;;;;;;5117132;28;20081;-86
2021/01/09 00:11:32;;;;;;;20.52;14.43;;;1.80;1.00;;;;;;5115670;28;20067;-85
2021/01/09 00:13:58;;;;;;;19.98;14.23;;;1.90;1.00;;;;;;5115523;28;20030;-85
2021/01/09 00:16:24;;;;;;;20.98;13.77;;;2.00;1.00;;;;;;5105978;28;20024;-85
2021/01/09 00:18:51;;;;;;;22.73;15.15;;;1.90;1.00;;;;;;5097332;28;20016;-85
2021/01/09 00:21:17;;;;;;;27.67;16.60;;;1.80;1.00;;;;;;5113809;28;20028;-85
2021/01/09 00:23:43;;;;;;;23.75;15.68;;;1.80;1.00;;;;;;5115304;28;20139;-85
2021/01/09 00:26:08;;;;;;;23.23;16.08;;;2.20;1.00;;;;;;5116665;28;20100;-86
2021/01/09 00:28:34;;;;;;;21.55;14.07;;;1.90;1.00;;;;;;5115420;28;20078;-86
2021/01/09 00:31:00;;;;;;;24.48;15.43;;;2.00;1.00;;;;;;5115395;28;20494;-85
2021/01/09 00:33:25;;;;;;;22.13;15.15;;;2.00;1.00;;;;;;5115175;28;20028;-86
2021/01/09 00:35:53;;;;;;;24.98;15.48;;;1.90;1.00;;;;;;5107820;28;20118;-85
2021/01/09 00:38:19;;;;;;;21.35;14.18;;;1.80;1.00;;;;;;5094712;28;20640;-86
2021/01/09 00:40:44;;;;;;;20.40;14.30;;;1.70;1.00;;;;;;5094864;28;20065;-86
2021/01/09 00:43:10;;;;;;;21.42;13.90;;;2.00;1.00;;;;;;5094653;28;20394;-85
2021/01/09 00:45:36;;;;;;;21.95;14.85;;;1.80;1.00;;;;;;5094555;28;20051;-85
2021/01/09 00:48:02;;;;;;;25.15;16.58;;;1.80;1.00;;;;;;5095787;28;20032;-85
2021/01/09 00:50:27;;;;;;;23.00;15.50;;;1.70;1.00;;;;;;5108724;28;20027;-86
2021/01/09 00:52:53;;;;;;;21.73;14.13;;;1.60;1.00;;;;;;5114808;28;20055;-86
2021/01/09 00:55:20;;;;;;;22.88;14.10;;;1.70;1.00;;;;;;5116339;28;20030;-85
2021/01/09 00:57:45;;;;;;;20.75;13.90;;;1.50;1.00;;;;;;5113928;28;20069;-85
2021/01/09 01:00:12;;;;;;;24.77;15.48;;;1.40;1.00;;;;;;5116365;28;20023;-85
2021/01/09 01:02:37;;;;;;;22.73;15.40;;;1.50;1.00;;;;;;5115799;28;20026;-85
2021/01/09 01:05:03;;;;;;;23.02;15.20;;;1.50;1.00;;;;;;5107198;28;20115;-86
2021/01/09 01:07:34;;;;;;;20.48;13.77;;;1.60;1.00;;;;;;5095690;28;20020;-86
2021/01/09 01:10:00;;;;;;;20.83;13.77;;;1.70;1.00;;;;;;5095432;28;20089;-85
2021/01/09 01:12:25;;;;;;;25.25;15.63;;;1.80;1.00;;;;;;5094314;28;20497;-85
2021/01/09 01:14:51;;;;;;;23.02;14.90;;;1.70;1.00;;;;;;5095336;28;20489;-85
2021/01/09 01:17:17;;;;;;;22.20;14.57;;;1.80;1.00;;;;;;5095220;28;20024;-85
2021/01/09 01:19:42;;;;;;;21.23;14.30;;;1.70;1.00;;;;;;5104500;28;20063;-85
2021/01/09 01:22:08;;;;;;;21.77;15.32;;;1.80;1.00;;;;;;5114223;28;20080;-85
2021/01/09 01:24:33;;;;;;;23.10;13.98;;;2.00;1.00;;;;;;5115513;28;20055;-85
2021/01/09 01:26:59;;;;;;;21.27;14.23;;;1.80;1.00;;;;;;5114144;28;20114;-85
2021/01/09 01:29:24;;;;;;;21.70;14.13;;;1.70;1.00;;;;;;5115695;28;20028;-86
2021/01/09 01:31:50;;;;;;;20.30;13.85;;;1.90;1.00;;;;;;5113850;28;20401;-85
2021/01/09 01:34:16;;;;;;;22.27;14.18;;;1.60;1.00;;;;;;5111373;28;20154;-85
2021/01/09 01:36:47;;;;;;;24.27;14.45;;;1.70;1.00;;;;;;5114060;28;20069;-85
2021/01/09 01:39:13;;;;;;;23.48;15.02;;;1.40;1.00;;;;;;5113900;28;20031;-86
2021/01/09 01:41:38;;;;;;;23.23;14.90;;;1.50;1.00;;;;;;5114094;28;20019;-85
2021/01/09 01:44:04;;;;;;;21.35;14.57;;;1.50;1.00;;;;;;5115339;28;20038;-85
2021/01/09 01:46:30;;;;;;;22.75;14.43;;;1.50;1.00;;;;;;5115086;28;20031;-85
2021/01/09 01:48:56;;;;;;;25.27;14.95;;;1.40;1.00;;;;;;5110961;28;20393;-85
2021/01/09 01:51:21;;;;;;;23.92;15.43;;;1.30;1.00;;;;;;5113914;28;20103;-85
2021/01/09 01:53:47;;;;;;;21.20;13.43;;;1.30;1.00;;;;;;5115034;28;20023;-85
2021/01/09 01:56:14;;;;;;;22.38;14.82;;;1.30;1.00;;;;;;5113687;28;20047;-85
2021/01/09 01:58:39;;;;;;;22.40;14.63;;;1.30;1.00;;;;;;5114842;28;20085;-86
2021/01/09 02:01:07;;;;;;;24.48;15.85;;;1.40;1.00;;;;;;5113304;28;20114;-85
2021/01/09 02:03:35;;;;;;;24.38;15.40;;;1.90;1.00;;;;;;5106899;28;20462;-85
2021/01/09 02:06:36;;;;;;;20.38;14.27;;;1.50;1.00;;;;;;5114906;28;20388;-85
2021/01/09 02:09:05;;;;;;;24.02;15.43;;;1.70;1.00;;;;;;5092338;28;20032;-85
2021/01/09 02:12:00;;;;;;;21.20;14.85;;;1.40;1.00;;;;;;5092409;28;20032;-85
2021/01/09 02:14:48;;;;;;;21.38;14.18;;;1.90;1.00;;;;;;5091732;28;20040;-85
2021/01/09 02:17:16;;;;;;;21.45;14.25;;;1.50;1.00;;;;;;5091445;28;20036;-85
2021/01/09 02:19:43;;;;;;;24.75;14.75;;;1.40;1.00;;;;;;5057159;28;20032;-85
2021/01/09 02:22:14;;;;;;;22.55;14.70;;;1.80;1.00;;;;;;5071733;28;20095;-85
2021/01/09 02:24:44;;;;;;;22.50;14.23;;;1.60;1.00;;;;;;5071952;28;20052;-86
2021/01/09 02:27:10;;;;;;;24.58;15.32;;;1.60;1.00;;;;;;5071763;28;20119;-85
2021/01/09 02:29:44;;;;;;;21.00;14.55;;;1.60;1.00;;;;;;5071383;28;20122;-85
2021/01/09 02:32:11;;;;;;;21.60;14.25;;;1.70;1.00;;;;;;5072557;28;20149;-85
2021/01/09 02:34:52;;;;;;;21.52;14.23;;;1.70;1.00;;;;;;5073799;28;20042;-85
2021/01/09 02:37:18;;;;;;;23.60;14.43;;;1.70;1.00;;;;;;5071371;28;20040;-86
2021/01/09 02:39:44;;;;;;;25.13;14.98;;;1.70;1.00;;;;;;5071679;28;20038;-85
2021/01/09 02:42:10;;;;;;;21.70;14.35;;;1.70;1.00;;;;;;5075401;28;20040;-85
2021/01/09 02:44:37;;;;;;;22.48;15.13;;;1.70;1.00;;;;;;5093593;28;20099;-85
2021/01/09 02:47:05;;;;;;;21.77;14.40;;;1.90;1.00;;;;;;5093128;28;20115;-85
2021/01/09 02:49:31;;;;;;;22.67;14.40;;;1.80;1.00;;;;;;5092240;28;20020;-85
2021/01/09 02:51:56;;;;;;;20.17;14.00;;;2.20;1.00;;;;;;5093584;28;20085;-86
2021/01/09 02:54:22;;;;;;;21.27;14.13;;;2.00;1.00;;;;;;5092270;28;20026;-85
2021/01/09 02:56:48;;;;;;;21.60;14.38;;;2.30;1.00;;;;;;5094800;28;20107;-86
2021/01/09 02:59:13;;;;;;;21.55;14.63;;;2.40;1.00;;;;;;5091649;28;20024;-85
2021/01/09 03:01:39;;;;;;;20.60;14.07;;;2.10;1.00;;;;;;5092015;28;20027;-85
2021/01/09 03:04:05;;;;;;;22.33;14.43;;;2.20;1.00;;;;;;5108625;28;20031;-85
2021/01/09 03:06:30;;;;;;;22.20;14.35;;;1.90;1.00;;;;;;5112571;28;20104;-85
2021/01/09 03:08:56;;;;;;;21.85;14.95;;;1.80;1.00;;;;;;5113778;28;20023;-85
2021/01/09 03:11:22;;;;;;;18.35;13.18;;;1.80;1.00;;;;;;5113385;28;20031;-85
2021/01/09 03:13:48;;;;;;;24.38;14.95;;;2.20;1.00;;;;;;5111949;28;20027;-85
2021/01/09 03:16:14;;;;;;;22.55;14.95;;;1.70;1.00;;;;;;5102626;28;20485;-85
2021/01/09 03:18:40;;;;;;;22.58;14.75;;;2.00;1.00;;;;;;5107101;28;20031;-85
2021/01/09 03:21:07;;;;;;;23.20;15.50;;;1.70;1.00;;;;;;5111680;28;20024;-85
2021/01/09 03:23:32;;;;;;;22.17;14.35;;;1.60;1.00;;;;;;5111969;28;20428;-85
2021/01/09 03:25:58;;;;;;;38.08;25.05;;;1.50;1.00;;;;;;5113459;28;20027;-85
2021/01/09 03:28:23;;;;;;;33.38;21.85;;;1.60;1.00;;;;;;5112874;28;20027;-85
2021/01/09 03:30:49;;;;;;;33.75;22.83;;;1.60;1.00;;;;;;5113518;28;20023;-86
2021/01/09 03:33:16;;;;;;;27.05;17.02;;;1.60;1.00;;;;;;5096555;28;20024;-85
2021/01/09 03:35:42;;;;;;;24.65;16.85;;;1.70;1.00;;;;;;5091677;28;20024;-85
2021/01/09 03:38:07;;;;;;;25.48;15.60;;;2.10;1.00;;;;;;5091752;28;20086;-85
2021/01/09 03:40:33;;;;;;;25.52;17.05;;;1.80;1.00;;;;;;5092934;28;20032;-85
2021/01/09 03:42:58;;;;;;;23.90;14.68;;;1.60;1.00;;;;;;5091212;28;20474;-85
2021/01/09 03:45:24;;;;;;;24.45;16.20;;;1.80;1.00;;;;;;5093061;28;20038;-85
2021/01/09 03:47:50;;;;;;;25.38;16.20;;;1.90;1.00;;;;;;5095543;28;20035;-85
2021/01/09 03:50:15;;;;;;;25.70;15.55;;;1.90;1.00;;;;;;5091529;28;20453;-85
2021/01/09 03:52:41;;;;;;;25.23;15.13;;;1.50;1.00;;;;;;5092804;28;20031;-85
2021/01/09 03:55:09;;;;;;;23.02;14.80;;;1.40;1.00;;;;;;5091373;28;20482;-85
2021/01/09 03:57:35;;;;;;;22.73;15.20;;;1.40;1.00;;;;;;5091136;28;20058;-85
2021/01/09 04:00:01;;;;;;;23.10;15.27;;;1.40;1.00;;;;;;5092956;28;20016;-86
2021/01/09 04:02:27;;;;;;;20.67;14.00;;;1.60;1.00;;;;;;5090920;28;20055;-85
2021/01/09 04:04:52;;;;;;;23.20;14.27;;;1.60;1.00;;;;;;5092648;28;20032;-86
2021/01/09 04:07:19;;;;;;;22.38;15.95;;;1.50;1.00;;;;;;5091703;28;20038;-86
2021/01/09 04:09:44;;;;;;;23.65;15.02;;;1.70;1.00;;;;;;5092787;28;20024;-85
2021/01/09 04:12:10;;;;;;;20.75;15.02;;;1.20;1.00;;;;;;5092509;28;20020;-85
2021/01/09 04:14:36;;;;;;;21.60;14.50;;;1.20;1.00;;;;;;5091381;28;20447;-85
2021/01/09 04:17:01;;;;;;;19.52;13.88;;;1.60;1.00;;;;;;5103694;28;20118;-85
2021/01/09 04:19:27;;;;;;;24.27;14.13;;;1.20;1.00;;;;;;5113226;28;20019;-85
2021/01/09 04:21:53;;;;;;;19.73;13.35;;;1.50;1.00;;;;;;5111712;28;20024;-85
2021/01/09 04:24:20;;;;;;;22.05;14.93;;;1.10;1.00;;;;;;5111469;28;20441;-85
2021/01/09 04:26:54;;;;;;;22.83;14.50;;;1.00;1.00;;;;;;5111502;28;20030;-85
2021/01/09 04:29:20;;;;;;;24.08;15.65;;;1.10;1.00;;;;;;5106713;28;20027;-85
2021/01/09 04:31:47;;;;;;;25.38;15.60;;;1.20;1.00;;;;;;5099876;28;20036;-85
2021/01/09 04:34:12;;;;;;;24.45;15.02;;;1.20;1.00;;;;;;5095034;28;20048;-85
2021/01/09 04:36:38;;;;;;;22.23;14.68;;;1.30;1.00;;;;;;5096282;28;20114;-85
2021/01/09 04:39:04;;;;;;;25.20;15.60;;;1.30;1.00;;;;;;5094895;28;20027;-85
2021/01/09 04:41:34;;;;;;;24.98;15.68;;;1.20;1.00;;;;;;5095848;28;20024;-85
2021/01/09 04:44:00;;;;;;;24.63;15.07;;;1.30;1.00;;;;;;5094571;28;20406;-85
2021/01/09 04:46:27;;;;;;;19.83;14.15;;;1.30;1.00;;;;;;5097244;28;20035;-85
2021/01/09 04:48:53;;;;;;;21.52;14.23;;;1.40;1.00;;;;;;5096084;28;20035;-86
2021/01/09 04:51:19;;;;;;;24.27;14.60;;;1.30;1.00;;;;;;5095968;28;20509;-85
2021/01/09 04:53:47;;;;;;;21.75;13.82;;;1.30;1.00;;;;;;5095755;28;20087;-85
2021/01/09 04:56:12;;;;;;;24.63;14.55;;;1.20;1.00;;;;;;5095589;28;20031;-85
2021/01/09 04:58:39;;;;;;;25.90;15.48;;;1.20;1.00;;;;;;5095698;28;20110;-85
2021/01/09 05:01:05;;;;;;;22.80;14.60;;;1.20;1.00;;;;;;5094738;28;20016;-85
2021/01/09 05:03:31;;;;;;;22.05;14.05;;;1.30;1.00;;;;;;5094398;28;20020;-86
2021/01/09 05:06:02;;;;;;;23.30;14.90;;;1.60;1.00;;;;;;5094644;28;20397;-85
2021/01/09 05:08:27;;;;;;;19.70;13.48;;;1.10;1.00;;;;;;5094272;28;20120;-85
2021/01/09 05:10:53;;;;;;;21.35;14.27;;;1.60;1.00;;;;;;5093923;28;20497;-85
2021/01/09 05:13:22;;;;;;;20.80;13.55;;;1.10;1.00;;;;;;5095319;28;20052;-85
2021/01/09 05:15:48;;;;;;;20.33;13.88;;;1.50;1.00;;;;;;5103519;28;20110;-85
2021/01/09 05:18:14;;;;;;;22.70;15.15;;;1.20;1.00;;;;;;5114361;28;20020;-85
2021/01/09 05:20:43;;;;;;;24.00;13.98;;;1.20;1.00;;;;;;5115648;28;20035;-86
2021/01/09 05:23:09;;;;;;;23.65;14.45;;;1.10;1.00;;;;;;5114177;28;20516;-85
2021/01/09 05:25:36;;;;;;;21.77;14.35;;;1.10;1.00;;;;;;5113999;28;20481;-85
2021/01/09 05:28:05;;;;;;;18.45;13.10;;;1.10;1.00;;;;;;5114274;28;20078;-85
2021/01/09 05:30:32;;;;;;;23.33;14.25;;;1.00;1.00;;;;;;5112591;28;20042;-85
2021/01/09 05:33:01;;;;;;;23.33;14.45;;;1.00;1.00;;;;;;5114161;28;20024;-85
2021/01/09 05:35:29;;;;;;;22.40;14.68;;;0.90;1.00;;;;;;5114031;28;20069;-85
2021/01/09 05:37:55;;;;;;;23.33;14.05;;;0.90;1.00;;;;;;5114085;28;20557;-85
2021/01/09 05:40:21;;;;;;;22.20;14.77;;;0.90;1.00;;;;;;5114986;28;20031;-85
2021/01/09 05:42:49;;;;;;;21.80;14.70;;;1.00;1.00;;;;;;5114131;28;20500;-85
2021/01/09 05:45:14;;;;;;;25.25;14.68;;;1.00;1.00;;;;;;5103367;28;20367;-85
2021/01/09 05:47:40;;;;;;;21.67;14.13;;;1.00;1.00;;;;;;5094810;28;20031;-85
2021/01/09 05:50:07;;;;;;;29.17;15.55;;;0.90;1.00;;;;;;5094970;28;20161;-85
2021/01/09 05:52:38;;;;;;;23.27;15.00;;;0.80;1.00;;;;;;5093851;28;20036;-85
2021/01/09 05:55:04;;;;;;;25.38;15.32;;;1.10;1.00;;;;;;5094851;28;20027;-86
2021/01/09 05:57:32;;;;;;;20.58;13.98;;;0.90;1.00;;;;;;5094765;28;20114;-85
2021/01/09 06:00:08;;;;;;;24.25;14.65;;;1.40;1.00;;;;;;5093203;28;20023;-85
2021/01/09 06:02:56;;;;;;;24.48;15.85;;;1.10;1.00;;;;;;5094717;28;20065;-86
2021/01/09 06:05:28;;;;;;;22.40;14.20;;;1.20;1.00;;;;;;5093470;28;20099;-85
2021/01/09 06:07:54;;;;;;;25.38;16.80;;;1.20;1.00;;;;;;5110265;28;20032;-85
2021/01/09 06:10:21;;;;;;;22.05;14.65;;;1.10;1.00;;;;;;5113605;28;20023;-85
2021/01/09 06:13:00;;;;;;;20.67;14.77;;;1.20;1.00;;;;;;5114509;28;20024;-85
2021/01/09 06:15:30;;;;;;;22.83;15.30;;;1.10;1.00;;;;;;5110376;28;20389;-86
2021/01/09 06:17:56;;;;;;;26.33;14.93;;;1.10;1.00;;;;;;5092947;28;20122;-85
2021/01/09 06:20:22;;;;;;;23.02;15.30;;;1.20;1.00;;;;;;5093870;28;20113;-86
2021/01/09 06:22:48;;;;;;;24.70;15.55;;;1.10;1.00;;;;;;5092347;28;20089;-86
2021/01/09 06:25:14;;;;;;;23.33;16.08;;;1.10;1.00;;;;;;5092826;28;20072;-85
2021/01/09 06:27:43;;;;;;;25.30;15.60;;;1.20;1.00;;;;;;5092640;28;20032;-85
2021/01/09 06:30:10;;;;;;;25.92;15.45;;;1.50;1.00;;;;;;5092697;28;20026;-85
2021/01/09 06:32:41;;;;;;;27.75;18.27;;;1.10;1.00;;;;;;5092716;28;20028;-85
2021/01/09 06:35:08;;;;;;;30.67;21.17;;;1.10;1.00;;;;;;5095360;28;20024;-85
2021/01/09 06:37:39;;;;;;;22.48;15.18;;;1.10;1.00;;;;;;5110928;28;20062;-85
2021/01/09 06:40:05;;;;;;;26.95;17.85;;;1.20;1.00;;;;;;5114163;28;20020;-85
2021/01/09 06:42:33;;;;;;;23.08;15.32;;;1.20;1.00;;;;;;5112929;28;20023;-86
2021/01/09 06:45:01;;;;;;;25.13;17.17;;;1.30;1.00;;;;;;5112734;28;20023;-85
2021/01/09 06:47:28;;;;;;;36.78;23.25;;;1.30;1.00;;;;;;5112598;28;20485;-85
2021/01/09 06:49:54;;;;;;;23.75;14.43;;;1.10;1.00;;;;;;5112405;28;20020;-85
2021/01/09 06:52:20;;;;;;;22.20;15.23;;;1.30;1.00;;;;;;5094792;28;20115;-85
2021/01/09 06:54:47;;;;;;;23.98;16.55;;;1.40;1.00;;;;;;5092292;28;20519;-85
2021/01/09 06:57:17;;;;;;;26.65;16.85;;;1.00;1.00;;;;;;5091464;28;20027;-85
2021/01/09 06:59:50;;;;;;;23.45;16.00;;;1.00;1.00;;;;;;5093481;28;20091;-85
2021/01/09 07:02:16;;;;;;;23.38;15.55;;;0.90;1.00;;;;;;5093488;28;20024;-85
2021/01/09 07:04:49;;;;;;;23.90;16.00;;;1.00;1.00;;;;;;5093405;28;20508;-86
2021/01/09 07:07:26;;;;;;;23.15;15.05;;;1.00;1.00;;;;;;5110992;28;20129;-85
2021/01/09 07:09:57;;;;;;;23.88;14.88;;;1.00;1.00;;;;;;5113754;28;20027;-85
2021/01/09 07:12:27;;;;;;;21.92;13.68;;;0.90;1.00;;;;;;5112283;28;20035;-85
2021/01/09 07:14:56;;;;;;;20.65;14.13;;;0.80;1.00;;;;;;5112072;28;20027;-86
2021/01/09 07:17:26;;;;;;;21.42;14.30;;;0.90;1.00;;;;;;5112326;28;20042;-85
2021/01/09 07:19:52;;;;;;;22.42;14.32;;;0.70;1.00;;;;;;5110033;28;20028;-85
2021/01/09 07:22:19;;;;;;;23.00;14.35;;;0.70;1.00;;;;;;5092300;28;20035;-86
2021/01/09 07:24:47;;;;;;;22.23;13.93;;;0.60;1.00;;;;;;5110387;28;20106;-85
2021/01/09 07:27:21;;;;;;;21.50;13.50;;;0.70;1.00;;;;;;5113356;28;20051;-85
2021/01/09 07:29:54;;;;;;;21.67;14.15;;;0.40;1.00;;;;;;5112322;28;20058;-86
2021/01/09 07:32:36;;;;;;;21.90;14.43;;;0.60;1.00;;;;;;5113564;28;20107;-85
2021/01/09 07:35:06;;;;;;;23.10;14.23;;;0.60;1.00;;;;;;5111402;28;20027;-85
2021/01/09 07:37:39;;;;;;;22.63;14.30;;;0.70;1.00;;;;;;5102907;28;20031;-85
2021/01/09 07:40:13;;;;;;;22.38;13.40;;;0.70;1.00;;;;;;5093125;28;20095;-85
2021/01/09 07:42:39;;;;;;;19.52;12.98;;;0.50;1.00;;;;;;5092931;28;20024;-85
2021/01/09 07:45:11;;;;;;;22.20;13.70;;;0.50;1.00;;;;;;5091598;28;20040;-86
2021/01/09 07:47:40;;;;;;;20.10;13.70;;;0.60;1.00;;;;;;5093000;28;20038;-85
2021/01/09 07:50:11;;;;;;;21.95;14.25;;;0.50;1.00;;;;;;5092466;28;20035;-85
2021/01/09 07:52:37;;;;;;;20.17;13.45;;;0.50;1.00;;;;;;5093096;28;20024;-85
2021/01/09 07:55:05;;;;;;;22.85;14.60;;;0.70;1.00;;;;;;5091394;28;20061;-85
2021/01/09 07:57:30;;;;;;;21.60;14.45;;;0.50;1.00;;;;;;5095578;28;20034;-85
2021/01/09 07:59:56;;;;;;;24.13;14.18;;;0.50;1.00;;;;;;5092782;28;20095;-85
2021/01/09 08:02:26;;;;;;;21.75;14.27;;;0.50;1.00;;;;;;5091476;28;20063;-85
2021/01/09 08:05:14;;;;;;;23.52;15.00;;;0.70;1.00;;;;;;5092404;28;20031;-85
2021/01/09 08:07:44;;;;;;;20.58;13.68;;;0.70;1.00;;;;;;5094429;28;20051;-86
2021/01/09 08:10:13;;;;;;;20.30;14.00;;;0.60;1.00;;;;;;5095421;28;20021;-85
2021/01/09 08:12:39;;;;;;;21.08;14.25;;;0.70;1.00;;;;;;5095195;28;20064;-86
2021/01/09 08:15:06;;;;;;;21.55;13.98;;;1.20;1.00;;;;;;5096586;28;20437;-85
2021/01/09 08:17:31;;;;;;;23.50;15.48;;;0.70;1.00;;;;;;5116398;28;20484;-85
2021/01/09 08:20:05;;;;;;;22.27;14.45;;;0.50;1.00;;;;;;5111850;28;20090;-85
2021/01/09 08:22:31;;;;;;;23.05;15.18;;;0.60;1.00;;;;;;5097335;28;20059;-85
2021/01/09 08:25:11;;;;;;;21.67;14.38;;;1.20;1.00;;;;;;5095145;28;20047;-86
2021/01/09 08:27:51;;;;;;;25.70;16.00;;;0.80;1.00;;;;;;5096565;28;20482;-86
2021/01/09 08:30:20;;;;;;;22.95;14.45;;;0.70;1.00;;;;;;5096437;28;20055;-86
2021/01/09 08:32:45;;;;;;;24.98;16.48;;;0.80;1.00;;;;;;5096110;28;20050;-85
2021/01/09 08:35:14;;;;;;;21.08;14.20;;;1.20;1.00;;;;;;5099592;28;20488;-85
2021/01/09 08:37:40;;;;;;;22.38;15.20;;;1.00;1.00;;;;;;5102949;28;20063;-86
2021/01/09 08:40:09;;;;;;;23.77;14.48;;;1.00;1.00;;;;;;5096040;28;20432;-86
2021/01/09 08:42:35;;;;;;;24.30;15.23;;;1.10;1.00;;;;;;5096012;28;20028;-86
2021/01/09 08:45:01;;;;;;;23.42;15.85;;;1.30;1.00;;;;;;5095986;28;20026;-86
2021/01/09 08:47:28;;;;;;;23.02;15.32;;;1.10;1.00;;;;;;5094276;28;20024;-86
2021/01/09 08:49:55;;;;;;;21.90;14.15;;;1.40;1.00;;;;;;5093705;28;20029;-86
2021/01/09 08:52:25;;;;;;;23.42;14.73;;;1.20;1.00;;;;;;5098814;28;20062;-86
2021/01/09 08:54:53;;;;;;;20.65;14.70;;;1.00;1.00;;;;;;5095838;28;20024;-86
2021/01/09 08:57:19;;;;;;;23.65;14.68;;;1.20;1.00;;;;;;5094747;28;20035;-87
2021/01/09 08:59:45;;;;;;;20.85;14.40;;;1.10;1.00;;;;;;5095860;28;20099;-87
2021/01/09 09:02:16;;;;;;;23.48;14.75;;;1.10;1.00;;;;;;5094142;28;20029;-87
2021/01/09 09:04:42;;;;;;;20.63;14.20;;;1.00;1.00;;;;;;5096264;28;20023;-87
2021/01/09 09:07:09;;;;;;;22.10;14.55;;;1.40;1.00;;;;;;5116168;28;20038;-87
2021/01/09 09:09:39;;;;;;;24.58;15.80;;;1.20;1.00;;;;;;5116034;28;20503;-87
2021/01/09 09:12:06;;;;;;;26.30;15.60;;;1.20;1.00;;;;;;5112981;28;20493;-87
2021/01/09 09:14:32;;;;;;;20.95;14.20;;;1.30;1.00;;;;;;5099883;28;20051;-87
2021/01/09 09:17:03;;;;;;;21.88;14.80;;;1.40;1.00;;;;;;5093908;28;20028;-87
2021/01/09 09:19:37;;;;;;;20.95;14.98;;;1.40;1.00;;;;;;5094865;28;20066;-86
2021/01/09 09:22:04;;;;;;;23.30;15.27;;;1.30;1.00;;;;;;5102190;28;20035;-87
2021/01/09 09:24:39;;;;;;;23.08;14.32;;;1.50;1.00;;;;;;5093858;28;20436;-86
2021/01/09 09:27:26;;;;;;;21.10;14.15;;;1.40;1.00;;;;;;5093983;28;20043;-86
2021/01/09 09:30:11;;;;;;;21.70;14.48;;;1.40;1.00;;;;;;5095478;28;20020;-87
2021/01/09 09:32:39;;;;;;;25.50;16.02;;;1.40;1.00;;;;;;5093608;28;20496;-87
2021/01/09 09:35:23;;;;;;;20.35;14.20;;;1.40;1.00;;;;;;5094342;28;20038;-90
2021/01/09 09:37:50;;;;;;;20.83;14.38;;;1.30;1.00;;;;;;5094857;28;20099;-87
2021/01/09 09:40:26;;;;;;;22.98;15.57;;;1.30;1.00;;;;;;5093966;28;20016;-87
2021/01/09 09:42:52;;;;;;;21.67;13.23;;;1.50;1.00;;;;;;5094179;28;20504;-89
2021/01/09 09:45:17;;;;;;;22.10;14.75;;;2.00;1.00;;;;;;5093701;28;20028;-86
2021/01/09 09:47:48;;;;;;;23.73;14.73;;;1.50;1.00;;;;;;5095013;28;20133;-88
2021/01/09 09:50:23;;;;;;;23.63;14.05;;;1.40;1.00;;;;;;5098058;28;20028;-88
2021/01/09 09:53:06;;;;;;;26.60;16.55;;;1.90;1.00;;;;;;5100447;28;20551;-88
2021/01/09 09:55:32;;;;;;;20.02;13.77;;;1.50;1.00;;;;;;5114098;28;20492;-89
2021/01/09 09:58:09;;;;;;;20.90;14.55;;;1.60;1.00;;;;;;5114314;28;20019;-90
2021/01/09 10:00:45;;;;;;;23.77;15.63;;;1.60;1.00;;;;;;5115057;28;20016;-88
2021/01/09 10:03:12;;;;;;;29.98;19.73;;;1.60;1.00;;;;;;5115324;28;20103;-88
2021/01/09 10:05:38;;;;;;;22.92;15.85;;;2.10;1.00;;;;;;5093171;28;20032;-88
2021/01/09 10:08:14;;;;;;;22.38;15.30;;;1.70;1.00;;;;;;5094178;28;20035;-90
2021/01/09 10:10:40;;;;;;;21.90;14.40;;;1.60;1.00;;;;;;5093903;28;20024;-89
2021/01/09 10:13:06;;;;;;;22.30;14.77;;;1.50;1.00;;;;;;5093393;28;20114;-89
2021/01/09 10:15:32;;;;;;;22.60;15.55;;;1.70;1.00;;;;;;5094543;28;20099;-88
2021/01/09 10:18:01;;;;;;;23.67;15.68;;;1.50;1.00;;;;;;5093575;28;20032;-90
2021/01/09 10:20:27;;;;;;;21.35;15.07;;;1.60;1.00;;;;;;5100338;28;20016;-90
2021/01/09 10:22:53;;;;;;;22.05;14.63;;;1.50;1.00;;;;;;5114062;28;20079;-89
2021/01/09 10:25:19;;;;;;;22.10;14.73;;;1.50;1.00;;;;;;5114993;28;20102;-89
2021/01/09 10:27:45;;;;;;;21.50;14.35;;;1.60;1.00;;;;;;5113760;28;20555;-89
2021/01/09 10:30:12;;;;;;;20.65;14.10;;;1.50;1.00;;;;;;5113255;28;20028;-89
2021/01/09 10:32:37;;;;;;;21.40;14.88;;;1.70;1.00;;;;;;5109973;28;20039;-90
2021/01/09 10:35:05;;;;;;;21.83;14.73;;;2.20;1.00;;;;;;5093165;28;20081;-89
2021/01/09 10:37:30;;;;;;;22.65;15.05;;;1.60;1.00;;;;;;5093018;28;20031;-88
2021/01/09 10:39:56;;;;;;;21.52;15.57;;;1.70;1.00;;;;;;5109647;28;20102;-89
2021/01/09 10:42:21;;;;;;;24.58;15.93;;;1.50;1.00;;;;;;5113384;28;20077;-90
2021/01/09 10:44:48;;;;;;;23.08;16.25;;;2.20;1.00;;;;;;5113285;28;20077;-90
2021/01/09 10:47:13;;;;;;;23.40;15.07;;;1.90;1.00;;;;;;5112148;28;20027;-90
2021/01/09 10:49:39;;;;;;;23.80;15.63;;;2.30;1.00;;;;;;5108137;28;20023;-90
2021/01/09 10:52:05;;;;;;;24.35;15.75;;;2.20;1.00;;;;;;5095567;28;20099;-90
2021/01/09 10:54:30;;;;;;;23.25;15.43;;;2.00;1.00;;;;;;5097335;28;20041;-89
2021/01/09 10:57:00;;;;;;;24.10;15.98;;;1.80;1.00;;;;;;5111459;28;20076;-90
2021/01/09 10:59:26;;;;;;;23.23;15.15;;;2.30;1.00;;;;;;5092429;28;20477;-90
2021/01/09 11:01:56;;;;;;;24.08;17.00;;;2.30;1.00;;;;;;5092976;28;20035;-90
2021/01/09 11:04:22;;;;;;;22.40;15.80;;;1.90;1.00;;;;;;5092593;28;20515;-90
2021/01/09 11:06:47;;;;;;;32.35;21.52;;;1.80;1.00;;;;;;5093103;28;20020;-91
2021/01/09 11:09:13;;;;;;;24.63;16.38;;;2.40;1.00;;;;;;5095285;28;20035;-88
2021/01/09 11:11:39;;;;;;;23.20;15.70;;;2.30;1.00;;;;;;5092635;28;20056;-90
2021/01/09 11:14:04;;;;;;;24.83;16.42;;;1.70;1.00;;;;;;5092542;28;20509;-91
2021/01/09 11:16:30;;;;;;;23.33;15.98;;;1.80;1.00;;;;;;5099693;28;20366;-90
2021/01/09 11:18:56;;;;;;;23.13;15.98;;;2.10;1.00;;;;;;5094608;28;20019;-90
2021/01/09 11:21:21;;;;;;;22.98;15.10;;;1.70;1.00;;;;;;5092906;28;20020;-90
2021/01/09 11:23:47;;;;;;;26.15;16.85;;;1.70;1.00;;;;;;5092372;28;20036;-91
2021/01/09 11:26:24;;;;;;;24.00;16.10;;;1.70;1.00;;;;;;5092212;28;20032;-91
2021/01/09 11:28:53;;;;;;;22.83;15.48;;;1.60;1.00;;;;;;5092810;28;20430;-90
2021/01/09 11:31:20;;;;;;;25.63;16.20;;;1.70;1.00;;;;;;5092816;28;20071;-90
2021/01/09 11:33:46;;;;;;;23.50;16.08;;;2.10;1.00;;;;;;5104347;28;20050;-91
2021/01/09 11:36:12;;;;;;;28.50;19.65;;;1.60;1.00;;;;;;5092324;28;20540;-90
2021/01/09 11:38:38;;;;;;;29.27;18.85;;;1.70;1.00;;;;;;5100001;28;20027;-89
2021/01/09 11:41:04;;;;;;;29.10;19.55;;;2.00;1.00;;;;;;5113494;28;20028;-90
2021/01/09 11:43:30;;;;;;;29.77;19.50;;;1.50;1.00;;;;;;5115961;28;20103;-90
2021/01/09 11:45:58;;;;;;;28.92;17.70;;;2.00;1.00;;;;;;5118069;28;20470;-90
2021/01/09 11:48:24;;;;;;;31.38;20.30;;;1.60;1.00;;;;;;5117063;28;20391;-90
2021/01/09 11:50:50;;;;;;;33.38;19.63;;;1.60;1.00;;;;;;5116996;28;20118;-90
2021/01/09 11:53:16;;;;;;;28.80;18.42;;;1.70;1.00;;;;;;5110393;28;20027;-90
2021/01/09 11:55:42;;;;;;;34.00;22.20;;;2.00;1.00;;;;;;5116424;28;20083;-89
2021/01/09 11:58:08;;;;;;;31.65;20.90;;;2.10;1.00;;;;;;5116623;28;20023;-90
2021/01/09 12:00:33;;;;;;;28.73;18.50;;;1.50;1.00;;;;;;5116541;28;20038;-90
2021/01/09 12:02:59;;;;;;;39.35;23.67;;;1.40;1.00;;;;;;5116552;28;20055;-90
2021/01/09 12:05:25;;;;;;;31.95;20.38;;;1.90;1.00;;;;;;5116968;28;20027;-91
2021/01/09 12:07:51;;;;;;;31.83;19.73;;;2.00;1.00;;;;;;5113766;28;20020;-90
2021/01/09 12:10:16;;;;;;;32.05;19.83;;;1.50;1.00;;;;;;5116433;28;20080;-89
2021/01/09 12:12:42;;;;;;;34.63;20.45;;;1.70;1.00;;;;;;5116521;28;20059;-92
2021/01/09 12:15:09;;;;;;;28.35;17.77;;;2.20;1.00;;;;;;5116167;28;20084;-86
2021/01/09 12:17:35;;;;;;;27.52;17.60;;;1.60;1.00;;;;;;5116929;27;20037;-86
2021/01/09 12:20:01;;;;;;;30.88;19.77;;;1.40;1.00;;;;;;5115604;28;20023;-87
2021/01/09 12:22:27;;;;;;;27.30;17.85;;;1.50;1.00;;;;;;5112438;28;20396;-88
2021/01/09 12:24:52;;;;;;;31.08;18.38;;;1.70;1.00;;;;;;5094709;28;20098;-87
2021/01/09 12:27:18;;;;;;;26.15;17.23;;;1.70;1.00;;;;;;5095077;28;20024;-90
2021/01/09 12:29:44;;;;;;;27.98;18.60;;;2.20;1.00;;;;;;5095139;28;20028;-87
2021/01/09 12:32:10;;;;;;;33.45;20.73;;;1.80;1.00;;;;;;5094932;28;20028;-88
2021/01/09 12:34:36;;;;;;;32.00;19.15;;;2.40;1.00;;;;;;5096807;28;20032;-94
2021/01/09 12:37:01;;;;;;;26.88;17.35;;;2.10;1.00;;;;;;5097052;28;20024;-87
2021/01/09 12:39:27;;;;;;;26.80;17.58;;;2.20;1.00;;;;;;5117127;28;20077;-88
2021/01/09 12:41:53;;;;;;;29.75;18.73;;;2.40;1.00;;;;;;5115112;28;20131;-87
2021/01/09 12:44:19;;;;;;;31.52;19.42;;;1.60;1.00;;;;;;5111518;28;20028;-87
2021/01/09 12:46:47;;;;;;;28.73;18.80;;;1.70;1.00;;;;;;5116482;28;20504;-87
2021/01/09 12:49:20;;;;;;;28.45;18.85;;;1.70;1.00;;;;;;5114897;28;20021;-86
2021/01/09 12:51:47;;;;;;;30.20;19.13;;;1.60;1.00;;;;;;5108182;28;20027;-84